Manzanillo International, Mexico

12:58 PM CDT on September 01, 2015 (GMT -0500)
Playa De Oro International | | Change Station
CLOSE
Current Station
Airport
Location: Manzanillo Airport,
Elevation: 26 ft
Nearby Weather Stations

Elev 26 ft 19.14 °N, 104.56 °W | Updated 16 minutes ago

Haze
Haze Smoke
93 °F
Feels Like 117 °F
N
9
Wind Variable Wind from SSW

Today
High -- | Low -- °F
--% Chance of Precip.
Yesterday
High -- | Low -- °F
Precip. -- in
7:43 AM 8:13 PM
Waning Gibbous, 87% visible
Pressure 29.85 in
Visibility 3.0 miles
Clouds Few 2000 ft
Scattered Clouds 25000 ft
Heat Index 117 °F
Dew Point 82 °F
Humidity 71%
Rainfall 0.00 in
Snow Depth Not available.
UV 9 out of 12
Pollen Not available.
Air Quality Not available.
Flu Activity Not available.
METAR MMZO 011742Z 21008KT 3SM HZ FU FEW020 SCT250 34/28 A2989 RMK SLP108 5//// 9// 6//// 8/106 Y
Pressure 29.85 in
Visibility 3.0 miles
Clouds Few 2000 ft
Scattered Clouds 25000 ft
Heat Index 117 °F
Dew Point 82 °F
Humidity 71%
Rainfall 0.00 in
Snow Depth Not available.
UV 9 out of 12
Pollen Not available.
Air Quality Not available.
Flu Activity Not available.
METAR MMZO 011742Z 21008KT 3SM HZ FU FEW020 SCT250 34/28 A2989 RMK SLP108 5//// 9// 6//// 8/106 Y

10-Day Weather Forecast

×

Almanac

Astronomy

Sep. 01, 2015 Rise Set
Actual Time
Civil Twilight
Nautical Twilight
Astronomical Twilight
Moon
Length of Visible Light
Length of Day
Tomorrow will be .
, % of the Moon is Illuminated

Today's Extremes

Country Highs Country Lows

Community

WunderPhotos

Upload Photos

1,851,569 photos uploaded!

WunderBlogs® & News

Nearby

Air Quality

  Air Quality AQ Index Pollutant
Not available.

Snow Depth

Station Depth Elevation

Earthquake Activity

City Distance Mag. Time & Date
Minimum magnitude displayed is 2.5.

Coastal Water Temperatures

Place Temperature

Stations

Nearby Weather Stations

Station Location Temp. Windchill Dew Point Humidity Wind Precip. Elev Updated Type